sensor_id;sensor_type;location;lat;lon;timestamp;P1;durP1;ratioP1;P2;durP2;ratioP2
6197;SDS011;3132;42.622;23.328;2022-09-29T00:00:32;8.30;;;7.90;;
6197;SDS011;3132;42.622;23.328;2022-09-29T00:02:57;9.00;;;8.50;;
6197;SDS011;3132;42.622;23.328;2022-09-29T00:05:22;10.27;;;9.20;;
6197;SDS011;3132;42.622;23.328;2022-09-29T00:07:48;10.03;;;9.43;;
6197;SDS011;3132;42.622;23.328;2022-09-29T00:10:13;9.47;;;8.77;;
6197;SDS011;3132;42.622;23.328;2022-09-29T00:12:39;9.03;;;8.43;;
6197;SDS011;3132;42.622;23.328;2022-09-29T00:15:05;14.40;;;8.60;;
6197;SDS011;3132;42.622;23.328;2022-09-29T00:17:31;9.40;;;8.80;;
6197;SDS011;3132;42.622;23.328;2022-09-29T00:19:56;9.13;;;8.50;;
6197;SDS011;3132;42.622;23.328;2022-09-29T00:22:21;9.27;;;8.60;;
6197;SDS011;3132;42.622;23.328;2022-09-29T00:24:47;9.93;;;9.23;;
6197;SDS011;3132;42.622;23.328;2022-09-29T00:27:16;9.20;;;8.57;;
6197;SDS011;3132;42.622;23.328;2022-09-29T00:29:42;11.10;;;9.13;;
6197;SDS011;3132;42.622;23.328;2022-09-29T00:32:08;10.00;;;9.07;;
6197;SDS011;3132;42.622;23.328;2022-09-29T00:34:33;12.43;;;9.30;;
6197;SDS011;3132;42.622;23.328;2022-09-29T00:36:59;10.57;;;9.67;;
6197;SDS011;3132;42.622;23.328;2022-09-29T00:39:24;10.80;;;9.90;;
6197;SDS011;3132;42.622;23.328;2022-09-29T00:41:50;11.17;;;10.00;;
6197;SDS011;3132;42.622;23.328;2022-09-29T00:49:25;24.67;;;10.63;;
6197;SDS011;3132;42.622;23.328;2022-09-29T00:52:59;17.53;;;10.67;;
6197;SDS011;3132;42.622;23.328;2022-09-29T00:57:41;10.57;;;9.47;;
6197;SDS011;3132;42.622;23.328;2022-09-29T01:00:14;10.57;;;9.67;;
6197;SDS011;3132;42.622;23.328;2022-09-29T01:02:44;9.77;;;8.97;;
6197;SDS011;3132;42.622;23.328;2022-09-29T01:05:19;10.40;;;9.67;;
6197;SDS011;3132;42.622;23.328;2022-09-29T01:07:48;10.17;;;9.33;;
6197;SDS011;3132;42.622;23.328;2022-09-29T01:10:14;9.20;;;8.63;;
6197;SDS011;3132;42.622;23.328;2022-09-29T01:12:42;9.40;;;8.90;;
6197;SDS011;3132;42.622;23.328;2022-09-29T01:15:10;9.07;;;8.53;;
6197;SDS011;3132;42.622;23.328;2022-09-29T01:17:35;8.90;;;8.37;;
6197;SDS011;3132;42.622;23.328;2022-09-29T01:20:05;9.67;;;8.97;;
6197;SDS011;3132;42.622;23.328;2022-09-29T01:34:41;9.83;;;9.33;;
6197;SDS011;3132;42.622;23.328;2022-09-29T01:42:54;9.53;;;8.90;;
6197;SDS011;3132;42.622;23.328;2022-09-29T01:45:33;8.83;;;8.33;;
6197;SDS011;3132;42.622;23.328;2022-09-29T01:48:05;9.33;;;8.73;;
6197;SDS011;3132;42.622;23.328;2022-09-29T01:50:40;9.47;;;8.63;;
6197;SDS011;3132;42.622;23.328;2022-09-29T01:53:12;9.90;;;9.33;;
6197;SDS011;3132;42.622;23.328;2022-09-29T01:55:44;8.83;;;8.37;;
6197;SDS011;3132;42.622;23.328;2022-09-29T01:58:18;10.17;;;9.60;;
6197;SDS011;3132;42.622;23.328;2022-09-29T02:00:51;8.73;;;8.27;;
6197;SDS011;3132;42.622;23.328;2022-09-29T02:05:56;9.57;;;9.07;;
6197;SDS011;3132;42.622;23.328;2022-09-29T02:10:53;11.03;;;10.07;;
6197;SDS011;3132;42.622;23.328;2022-09-29T02:13:25;10.57;;;9.53;;
6197;SDS011;3132;42.622;23.328;2022-09-29T02:15:54;11.07;;;10.33;;
6197;SDS011;3132;42.622;23.328;2022-09-29T02:18:22;10.37;;;9.87;;
6197;SDS011;3132;42.622;23.328;2022-09-29T02:20:51;9.70;;;9.07;;
6197;SDS011;3132;42.622;23.328;2022-09-29T02:23:16;9.70;;;9.20;;
6197;SDS011;3132;42.622;23.328;2022-09-29T02:25:42;10.23;;;9.70;;
6197;SDS011;3132;42.622;23.328;2022-09-29T02:28:10;9.57;;;9.00;;
6197;SDS011;3132;42.622;23.328;2022-09-29T02:30:37;9.43;;;8.73;;
6197;SDS011;3132;42.622;23.328;2022-09-29T02:33:02;9.27;;;8.87;;
6197;SDS011;3132;42.622;23.328;2022-09-29T02:35:30;10.33;;;9.63;;
6197;SDS011;3132;42.622;23.328;2022-09-29T02:38:24;10.40;;;9.50;;
6197;SDS011;3132;42.622;23.328;2022-09-29T02:51:35;9.87;;;9.23;;
6197;SDS011;3132;42.622;23.328;2022-09-29T03:00:07;9.27;;;8.67;;
6197;SDS011;3132;42.622;23.328;2022-09-29T03:02:36;10.13;;;9.33;;
6197;SDS011;3132;42.622;23.328;2022-09-29T03:05:10;9.23;;;8.53;;
6197;SDS011;3132;42.622;23.328;2022-09-29T03:07:37;9.40;;;8.60;;
6197;SDS011;3132;42.622;23.328;2022-09-29T03:10:04;9.63;;;8.97;;
6197;SDS011;3132;42.622;23.328;2022-09-29T03:12:30;9.97;;;9.37;;
6197;SDS011;3132;42.622;23.328;2022-09-29T03:14:56;10.23;;;9.53;;
6197;SDS011;3132;42.622;23.328;2022-09-29T03:17:21;11.73;;;10.10;;
6197;SDS011;3132;42.622;23.328;2022-09-29T03:19:47;11.13;;;10.30;;
6197;SDS011;3132;42.622;23.328;2022-09-29T03:22:12;10.87;;;10.17;;
6197;SDS011;3132;42.622;23.328;2022-09-29T03:24:38;10.17;;;9.47;;
6197;SDS011;3132;42.622;23.328;2022-09-29T03:27:04;10.63;;;9.70;;
6197;SDS011;3132;42.622;23.328;2022-09-29T03:29:30;10.10;;;9.47;;
6197;SDS011;3132;42.622;23.328;2022-09-29T03:31:56;10.80;;;10.20;;
6197;SDS011;3132;42.622;23.328;2022-09-29T03:34:22;9.90;;;9.03;;
6197;SDS011;3132;42.622;23.328;2022-09-29T03:36:48;10.70;;;10.10;;
6197;SDS011;3132;42.622;23.328;2022-09-29T03:39:13;10.20;;;9.60;;
6197;SDS011;3132;42.622;23.328;2022-09-29T03:41:38;10.77;;;9.70;;
6197;SDS011;3132;42.622;23.328;2022-09-29T03:44:04;10.10;;;9.43;;
6197;SDS011;3132;42.622;23.328;2022-09-29T03:46:29;10.97;;;10.37;;
6197;SDS011;3132;42.622;23.328;2022-09-29T03:48:54;11.43;;;10.20;;
6197;SDS011;3132;42.622;23.328;2022-09-29T03:51:20;12.30;;;9.57;;
6197;SDS011;3132;42.622;23.328;2022-09-29T03:53:45;11.00;;;10.20;;
6197;SDS011;3132;42.622;23.328;2022-09-29T03:56:11;11.33;;;10.57;;
6197;SDS011;3132;42.622;23.328;2022-09-29T03:58:36;11.10;;;10.10;;
6197;SDS011;3132;42.622;23.328;2022-09-29T04:01:02;11.33;;;10.37;;
6197;SDS011;3132;42.622;23.328;2022-09-29T04:03:27;10.83;;;10.03;;
6197;SDS011;3132;42.622;23.328;2022-09-29T04:05:53;11.30;;;10.37;;
6197;SDS011;3132;42.622;23.328;2022-09-29T04:08:18;11.30;;;10.30;;
6197;SDS011;3132;42.622;23.328;2022-09-29T04:10:46;11.90;;;11.10;;
6197;SDS011;3132;42.622;23.328;2022-09-29T04:13:12;10.53;;;9.83;;
6197;SDS011;3132;42.622;23.328;2022-09-29T04:15:38;11.60;;;10.57;;
6197;SDS011;3132;42.622;23.328;2022-09-29T04:18:04;10.90;;;10.10;;
6197;SDS011;3132;42.622;23.328;2022-09-29T04:20:30;11.03;;;10.10;;
6197;SDS011;3132;42.622;23.328;2022-09-29T04:22:55;10.80;;;9.90;;
6197;SDS011;3132;42.622;23.328;2022-09-29T04:25:21;14.13;;;11.20;;
6197;SDS011;3132;42.622;23.328;2022-09-29T04:27:46;10.60;;;9.70;;
6197;SDS011;3132;42.622;23.328;2022-09-29T04:30:12;11.17;;;10.27;;
6197;SDS011;3132;42.622;23.328;2022-09-29T04:32:37;10.97;;;9.93;;
6197;SDS011;3132;42.622;23.328;2022-09-29T04:35:02;11.87;;;10.87;;
6197;SDS011;3132;42.622;23.328;2022-09-29T04:37:28;10.97;;;9.97;;
6197;SDS011;3132;42.622;23.328;2022-09-29T04:39:55;11.60;;;10.60;;
6197;SDS011;3132;42.622;23.328;2022-09-29T04:42:21;11.13;;;10.33;;
6197;SDS011;3132;42.622;23.328;2022-09-29T04:44:46;11.63;;;10.63;;
6197;SDS011;3132;42.622;23.328;2022-09-29T04:47:12;11.27;;;10.40;;
6197;SDS011;3132;42.622;23.328;2022-09-29T04:49:37;10.90;;;10.27;;
6197;SDS011;3132;42.622;23.328;2022-09-29T04:52:03;11.37;;;10.33;;
6197;SDS011;3132;42.622;23.328;2022-09-29T04:54:29;11.33;;;10.57;;
6197;SDS011;3132;42.622;23.328;2022-09-29T04:56:58;12.03;;;11.13;;
6197;SDS011;3132;42.622;23.328;2022-09-29T04:59:25;11.47;;;10.30;;
6197;SDS011;3132;42.622;23.328;2022-09-29T05:01:51;11.47;;;10.60;;
6197;SDS011;3132;42.622;23.328;2022-09-29T05:04:16;12.33;;;10.13;;
6197;SDS011;3132;42.622;23.328;2022-09-29T05:06:41;13.50;;;10.53;;
6197;SDS011;3132;42.622;23.328;2022-09-29T05:09:07;19.13;;;11.30;;
6197;SDS011;3132;42.622;23.328;2022-09-29T05:11:32;11.80;;;10.43;;
6197;SDS011;3132;42.622;23.328;2022-09-29T05:13:58;10.90;;;10.07;;
6197;SDS011;3132;42.622;23.328;2022-09-29T05:16:24;10.03;;;9.10;;
6197;SDS011;3132;42.622;23.328;2022-09-29T05:18:50;15.37;;;11.30;;
6197;SDS011;3132;42.622;23.328;2022-09-29T05:21:16;11.47;;;10.23;;
6197;SDS011;3132;42.622;23.328;2022-09-29T05:23:41;10.60;;;9.70;;
6197;SDS011;3132;42.622;23.328;2022-09-29T05:26:07;11.03;;;10.20;;
6197;SDS011;3132;42.622;23.328;2022-09-29T05:28:36;11.17;;;10.10;;
6197;SDS011;3132;42.622;23.328;2022-09-29T05:31:04;11.03;;;9.87;;
6197;SDS011;3132;42.622;23.328;2022-09-29T05:33:31;10.67;;;9.77;;
6197;SDS011;3132;42.622;23.328;2022-09-29T05:35:57;12.97;;;9.77;;
6197;SDS011;3132;42.622;23.328;2022-09-29T05:38:22;11.13;;;10.13;;
6197;SDS011;3132;42.622;23.328;2022-09-29T05:40:49;10.43;;;9.57;;
6197;SDS011;3132;42.622;23.328;2022-09-29T05:43:15;13.27;;;9.93;;
6197;SDS011;3132;42.622;23.328;2022-09-29T05:45:40;10.50;;;9.57;;
6197;SDS011;3132;42.622;23.328;2022-09-29T05:48:06;9.47;;;8.97;;
6197;SDS011;3132;42.622;23.328;2022-09-29T05:50:32;10.60;;;9.70;;
6197;SDS011;3132;42.622;23.328;2022-09-29T05:53:05;10.43;;;9.00;;
6197;SDS011;3132;42.622;23.328;2022-09-29T05:55:31;9.57;;;8.77;;
6197;SDS011;3132;42.622;23.328;2022-09-29T05:57:56;10.33;;;9.70;;
6197;SDS011;3132;42.622;23.328;2022-09-29T06:00:21;10.27;;;9.37;;
6197;SDS011;3132;42.622;23.328;2022-09-29T06:02:47;10.70;;;9.80;;
6197;SDS011;3132;42.622;23.328;2022-09-29T06:05:12;10.93;;;9.77;;
6197;SDS011;3132;42.622;23.328;2022-09-29T06:07:37;11.60;;;10.60;;
6197;SDS011;3132;42.622;23.328;2022-09-29T06:10:03;10.10;;;9.23;;
6197;SDS011;3132;42.622;23.328;2022-09-29T06:12:32;9.53;;;8.90;;
6197;SDS011;3132;42.622;23.328;2022-09-29T06:14:59;11.57;;;9.63;;
6197;SDS011;3132;42.622;23.328;2022-09-29T06:17:24;10.57;;;9.73;;
6197;SDS011;3132;42.622;23.328;2022-09-29T06:19:49;10.43;;;9.73;;
6197;SDS011;3132;42.622;23.328;2022-09-29T06:22:16;10.37;;;9.67;;
6197;SDS011;3132;42.622;23.328;2022-09-29T06:24:43;10.10;;;9.50;;
6197;SDS011;3132;42.622;23.328;2022-09-29T06:27:08;11.03;;;10.13;;
6197;SDS011;3132;42.622;23.328;2022-09-29T06:29:34;9.77;;;8.83;;
6197;SDS011;3132;42.622;23.328;2022-09-29T06:32:00;9.57;;;8.90;;
6197;SDS011;3132;42.622;23.328;2022-09-29T06:34:26;10.10;;;9.17;;
6197;SDS011;3132;42.622;23.328;2022-09-29T06:36:51;10.37;;;9.50;;
6197;SDS011;3132;42.622;23.328;2022-09-29T06:39:36;14.83;;;10.97;;
6197;SDS011;3132;42.622;23.328;2022-09-29T06:42:01;9.23;;;8.73;;
6197;SDS011;3132;42.622;23.328;2022-09-29T06:44:27;9.23;;;8.50;;
6197;SDS011;3132;42.622;23.328;2022-09-29T06:46:54;10.10;;;9.50;;
6197;SDS011;3132;42.622;23.328;2022-09-29T06:49:21;9.43;;;8.80;;
6197;SDS011;3132;42.622;23.328;2022-09-29T06:51:48;9.87;;;9.07;;
6197;SDS011;3132;42.622;23.328;2022-09-29T06:54:15;8.70;;;8.20;;
6197;SDS011;3132;42.622;23.328;2022-09-29T06:56:45;9.73;;;9.13;;
6197;SDS011;3132;42.622;23.328;2022-09-29T06:59:12;8.67;;;8.17;;
6197;SDS011;3132;42.622;23.328;2022-09-29T07:01:37;9.13;;;8.63;;
6197;SDS011;3132;42.622;23.328;2022-09-29T07:04:02;8.77;;;8.20;;
6197;SDS011;3132;42.622;23.328;2022-09-29T07:06:28;8.77;;;8.27;;
6197;SDS011;3132;42.622;23.328;2022-09-29T07:08:55;10.00;;;8.97;;
6197;SDS011;3132;42.622;23.328;2022-09-29T07:11:21;8.70;;;7.97;;
6197;SDS011;3132;42.622;23.328;2022-09-29T07:13:47;9.80;;;8.80;;
6197;SDS011;3132;42.622;23.328;2022-09-29T07:16:14;10.23;;;9.17;;
6197;SDS011;3132;42.622;23.328;2022-09-29T07:18:40;9.93;;;9.03;;
6197;SDS011;3132;42.622;23.328;2022-09-29T07:21:07;9.60;;;8.83;;
6197;SDS011;3132;42.622;23.328;2022-09-29T07:23:35;10.43;;;9.50;;
6197;SDS011;3132;42.622;23.328;2022-09-29T07:26:01;10.27;;;9.37;;
6197;SDS011;3132;42.622;23.328;2022-09-29T07:28:27;10.73;;;9.80;;
6197;SDS011;3132;42.622;23.328;2022-09-29T07:33:27;10.13;;;9.33;;
6197;SDS011;3132;42.622;23.328;2022-09-29T07:35:54;9.77;;;8.80;;
6197;SDS011;3132;42.622;23.328;2022-09-29T07:38:20;9.73;;;9.07;;
6197;SDS011;3132;42.622;23.328;2022-09-29T07:40:45;9.77;;;8.97;;
6197;SDS011;3132;42.622;23.328;2022-09-29T07:43:10;9.57;;;8.93;;
6197;SDS011;3132;42.622;23.328;2022-09-29T07:45:36;9.83;;;9.03;;
6197;SDS011;3132;42.622;23.328;2022-09-29T07:48:02;11.17;;;9.70;;
6197;SDS011;3132;42.622;23.328;2022-09-29T07:50:27;13.47;;;10.33;;
6197;SDS011;3132;42.622;23.328;2022-09-29T07:52:53;10.27;;;9.37;;
6197;SDS011;3132;42.622;23.328;2022-09-29T07:55:18;10.27;;;9.40;;
6197;SDS011;3132;42.622;23.328;2022-09-29T07:58:00;11.67;;;10.63;;
6197;SDS011;3132;42.622;23.328;2022-09-29T08:00:26;9.57;;;8.87;;
6197;SDS011;3132;42.622;23.328;2022-09-29T08:02:52;9.93;;;9.07;;
6197;SDS011;3132;42.622;23.328;2022-09-29T08:05:18;10.97;;;9.43;;
6197;SDS011;3132;42.622;23.328;2022-09-29T08:07:43;10.97;;;9.93;;
6197;SDS011;3132;42.622;23.328;2022-09-29T08:10:09;11.03;;;9.63;;
6197;SDS011;3132;42.622;23.328;2022-09-29T08:12:34;10.43;;;9.63;;
6197;SDS011;3132;42.622;23.328;2022-09-29T08:15:00;9.77;;;9.17;;
6197;SDS011;3132;42.622;23.328;2022-09-29T08:17:25;10.93;;;9.80;;
6197;SDS011;3132;42.622;23.328;2022-09-29T08:19:51;11.27;;;9.27;;
6197;SDS011;3132;42.622;23.328;2022-09-29T08:22:16;10.40;;;9.50;;
6197;SDS011;3132;42.622;23.328;2022-09-29T08:24:41;9.47;;;8.57;;
6197;SDS011;3132;42.622;23.328;2022-09-29T08:27:07;9.47;;;8.50;;
6197;SDS011;3132;42.622;23.328;2022-09-29T08:29:33;9.67;;;8.87;;
6197;SDS011;3132;42.622;23.328;2022-09-29T08:31:58;9.60;;;8.90;;
6197;SDS011;3132;42.622;23.328;2022-09-29T08:34:24;9.73;;;9.03;;
6197;SDS011;3132;42.622;23.328;2022-09-29T08:36:49;10.53;;;9.57;;
6197;SDS011;3132;42.622;23.328;2022-09-29T08:39:16;9.93;;;8.93;;
6197;SDS011;3132;42.622;23.328;2022-09-29T08:47:34;9.40;;;8.80;;
6197;SDS011;3132;42.622;23.328;2022-09-29T08:52:42;11.50;;;10.20;;
6197;SDS011;3132;42.622;23.328;2022-09-29T08:57:42;11.97;;;8.67;;
6197;SDS011;3132;42.622;23.328;2022-09-29T09:00:09;9.07;;;8.47;;
6197;SDS011;3132;42.622;23.328;2022-09-29T09:18:57;10.93;;;9.73;;
6197;SDS011;3132;42.622;23.328;2022-09-29T09:21:57;9.40;;;8.77;;
6197;SDS011;3132;42.622;23.328;2022-09-29T09:27:37;9.60;;;8.43;;
6197;SDS011;3132;42.622;23.328;2022-09-29T09:30:11;9.57;;;8.97;;
6197;SDS011;3132;42.622;23.328;2022-09-29T09:32:47;9.17;;;8.60;;
6197;SDS011;3132;42.622;23.328;2022-09-29T09:38:03;9.60;;;9.00;;
6197;SDS011;3132;42.622;23.328;2022-09-29T09:40:53;10.30;;;9.40;;
6197;SDS011;3132;42.622;23.328;2022-09-29T09:43:41;8.77;;;8.27;;
6197;SDS011;3132;42.622;23.328;2022-09-29T09:54:34;10.10;;;9.10;;
6197;SDS011;3132;42.622;23.328;2022-09-29T10:02:55;8.90;;;8.40;;
6197;SDS011;3132;42.622;23.328;2022-09-29T10:05:40;10.00;;;8.60;;
6197;SDS011;3132;42.622;23.328;2022-09-29T10:08:10;9.18;;;8.43;;
6197;SDS011;3132;42.622;23.328;2022-09-29T10:10:40;9.87;;;8.73;;
6197;SDS011;3132;42.622;23.328;2022-09-29T10:13:09;13.57;;;8.80;;
6197;SDS011;3132;42.622;23.328;2022-09-29T10:20:41;9.13;;;8.53;;
6197;SDS011;3132;42.622;23.328;2022-09-29T10:23:22;8.20;;;7.70;;
6197;SDS011;3132;42.622;23.328;2022-09-29T10:28:21;8.55;;;8.15;;
6197;SDS011;3132;42.622;23.328;2022-09-29T10:30:48;9.68;;;8.75;;
6197;SDS011;3132;42.622;23.328;2022-09-29T10:33:16;9.65;;;9.15;;
6197;SDS011;3132;42.622;23.328;2022-09-29T10:35:46;8.05;;;7.22;;
6197;SDS011;3132;42.622;23.328;2022-09-29T10:40:52;8.88;;;8.00;;
6197;SDS011;3132;42.622;23.328;2022-09-29T10:43:23;8.27;;;7.80;;
6197;SDS011;3132;42.622;23.328;2022-09-29T10:45:51;8.57;;;8.07;;
6197;SDS011;3132;42.622;23.328;2022-09-29T10:48:22;8.55;;;7.93;;
6197;SDS011;3132;42.622;23.328;2022-09-29T10:53:34;8.50;;;7.80;;
6197;SDS011;3132;42.622;23.328;2022-09-29T10:56:17;8.95;;;8.27;;
6197;SDS011;3132;42.622;23.328;2022-09-29T10:58:53;8.65;;;8.10;;
6197;SDS011;3132;42.622;23.328;2022-09-29T11:01:21;8.07;;;7.28;;
6197;SDS011;3132;42.622;23.328;2022-09-29T11:03:48;8.93;;;8.20;;
6197;SDS011;3132;42.622;23.328;2022-09-29T11:06:23;8.25;;;7.50;;
6197;SDS011;3132;42.622;23.328;2022-09-29T11:08:58;7.55;;;7.15;;
6197;SDS011;3132;42.622;23.328;2022-09-29T11:11:38;8.15;;;7.75;;
6197;SDS011;3132;42.622;23.328;2022-09-29T11:14:26;7.78;;;7.40;;
6197;SDS011;3132;42.622;23.328;2022-09-29T11:16:54;8.18;;;7.55;;
6197;SDS011;3132;42.622;23.328;2022-09-29T11:19:21;7.85;;;7.45;;
6197;SDS011;3132;42.622;23.328;2022-09-29T11:21:52;8.65;;;8.15;;
6197;SDS011;3132;42.622;23.328;2022-09-29T11:24:31;7.75;;;7.38;;
6197;SDS011;3132;42.622;23.328;2022-09-29T11:29:56;8.13;;;7.47;;
6197;SDS011;3132;42.622;23.328;2022-09-29T11:35:06;8.45;;;7.93;;
6197;SDS011;3132;42.622;23.328;2022-09-29T11:40:19;8.13;;;7.63;;
6197;SDS011;3132;42.622;23.328;2022-09-29T11:45:47;8.00;;;7.28;;
6197;SDS011;3132;42.622;23.328;2022-09-29T11:51:22;7.53;;;7.03;;
6197;SDS011;3132;42.622;23.328;2022-09-29T11:59:04;7.97;;;7.20;;
6197;SDS011;3132;42.622;23.328;2022-09-29T12:10:04;7.70;;;7.30;;
6197;SDS011;3132;42.622;23.328;2022-09-29T12:15:32;7.57;;;7.18;;
6197;SDS011;3132;42.622;23.328;2022-09-29T12:18:25;7.18;;;6.88;;
6197;SDS011;3132;42.622;23.328;2022-09-29T12:20:56;7.40;;;6.95;;
6197;SDS011;3132;42.622;23.328;2022-09-29T12:23:25;7.03;;;6.63;;
6197;SDS011;3132;42.622;23.328;2022-09-29T12:28:44;8.90;;;8.23;;
6197;SDS011;3132;42.622;23.328;2022-09-29T12:31:25;7.22;;;6.75;;
6197;SDS011;3132;42.622;23.328;2022-09-29T12:33:57;7.82;;;7.32;;
6197;SDS011;3132;42.622;23.328;2022-09-29T12:53:02;7.03;;;6.63;;
6197;SDS011;3132;42.622;23.328;2022-09-29T12:55:40;6.90;;;6.50;;
6197;SDS011;3132;42.622;23.328;2022-09-29T12:58:08;6.88;;;6.57;;
6197;SDS011;3132;42.622;23.328;2022-09-29T13:00:39;8.27;;;7.82;;
6197;SDS011;3132;42.622;23.328;2022-09-29T13:20:33;7.05;;;6.65;;
6197;SDS011;3132;42.622;23.328;2022-09-29T13:25:31;7.35;;;7.05;;
6197;SDS011;3132;42.622;23.328;2022-09-29T13:28:00;7.70;;;7.30;;
6197;SDS011;3132;42.622;23.328;2022-09-29T13:30:45;7.65;;;7.30;;
6197;SDS011;3132;42.622;23.328;2022-09-29T13:33:24;7.35;;;6.80;;
6197;SDS011;3132;42.622;23.328;2022-09-29T13:35:50;7.57;;;7.18;;
6197;SDS011;3132;42.622;23.328;2022-09-29T13:38:18;7.55;;;7.05;;
6197;SDS011;3132;42.622;23.328;2022-09-29T13:44:02;7.63;;;7.13;;
6197;SDS011;3132;42.622;23.328;2022-09-29T13:51:44;8.75;;;8.18;;
6197;SDS011;3132;42.622;23.328;2022-09-29T13:54:19;8.73;;;8.00;;
6197;SDS011;3132;42.622;23.328;2022-09-29T13:59:39;8.75;;;8.20;;
6197;SDS011;3132;42.622;23.328;2022-09-29T14:02:18;8.45;;;7.82;;
6197;SDS011;3132;42.622;23.328;2022-09-29T14:04:59;8.13;;;7.57;;
6197;SDS011;3132;42.622;23.328;2022-09-29T14:07:46;8.32;;;7.82;;
6197;SDS011;3132;42.622;23.328;2022-09-29T14:13:06;8.10;;;7.53;;
6197;SDS011;3132;42.622;23.328;2022-09-29T14:15:41;9.03;;;8.27;;
6197;SDS011;3132;42.622;23.328;2022-09-29T14:18:14;7.73;;;7.33;;
6197;SDS011;3132;42.622;23.328;2022-09-29T14:20:59;8.07;;;7.57;;
6197;SDS011;3132;42.622;23.328;2022-09-29T14:26:40;10.43;;;8.13;;
6197;SDS011;3132;42.622;23.328;2022-09-29T14:29:11;9.40;;;8.90;;
6197;SDS011;3132;42.622;23.328;2022-09-29T14:31:42;9.57;;;8.97;;
6197;SDS011;3132;42.622;23.328;2022-09-29T14:34:12;9.10;;;8.50;;
6197;SDS011;3132;42.622;23.328;2022-09-29T14:36:40;10.40;;;9.50;;
6197;SDS011;3132;42.622;23.328;2022-09-29T14:39:10;9.37;;;8.67;;
6197;SDS011;3132;42.622;23.328;2022-09-29T14:41:43;22.70;;;14.73;;
6197;SDS011;3132;42.622;23.328;2022-09-29T14:53:15;19.60;;;13.57;;
6197;SDS011;3132;42.622;23.328;2022-09-29T15:03:44;10.63;;;9.70;;
6197;SDS011;3132;42.622;23.328;2022-09-29T15:08:39;10.53;;;9.70;;
6197;SDS011;3132;42.622;23.328;2022-09-29T15:16:44;9.67;;;8.97;;
6197;SDS011;3132;42.622;23.328;2022-09-29T15:22:24;8.77;;;8.07;;
6197;SDS011;3132;42.622;23.328;2022-09-29T15:27:18;10.43;;;9.63;;
6197;SDS011;3132;42.622;23.328;2022-09-29T15:29:45;11.47;;;10.47;;
6197;SDS011;3132;42.622;23.328;2022-09-29T15:32:20;9.50;;;9.00;;
6197;SDS011;3132;42.622;23.328;2022-09-29T15:34:48;12.80;;;11.43;;
6197;SDS011;3132;42.622;23.328;2022-09-29T15:37:15;11.73;;;10.57;;
6197;SDS011;3132;42.622;23.328;2022-09-29T15:39:50;9.93;;;9.00;;
6197;SDS011;3132;42.622;23.328;2022-09-29T15:44:48;10.20;;;9.40;;
6197;SDS011;3132;42.622;23.328;2022-09-29T15:47:36;11.33;;;10.50;;
6197;SDS011;3132;42.622;23.328;2022-09-29T15:50:04;10.97;;;10.27;;
6197;SDS011;3132;42.622;23.328;2022-09-29T15:52:45;10.63;;;9.83;;
6197;SDS011;3132;42.622;23.328;2022-09-29T15:55:12;10.07;;;9.40;;
6197;SDS011;3132;42.622;23.328;2022-09-29T15:57:42;11.10;;;10.20;;
6197;SDS011;3132;42.622;23.328;2022-09-29T16:05:30;11.13;;;10.33;;
6197;SDS011;3132;42.622;23.328;2022-09-29T16:08:04;11.97;;;10.97;;
6197;SDS011;3132;42.622;23.328;2022-09-29T16:10:33;11.73;;;10.83;;
6197;SDS011;3132;42.622;23.328;2022-09-29T16:13:03;10.63;;;10.03;;
6197;SDS011;3132;42.622;23.328;2022-09-29T16:15:41;11.20;;;10.20;;
6197;SDS011;3132;42.622;23.328;2022-09-29T16:18:19;9.90;;;9.20;;
6197;SDS011;3132;42.622;23.328;2022-09-29T16:20:48;10.87;;;10.07;;
6197;SDS011;3132;42.622;23.328;2022-09-29T16:23:19;11.87;;;11.07;;
6197;SDS011;3132;42.622;23.328;2022-09-29T16:28:35;12.73;;;11.47;;
6197;SDS011;3132;42.622;23.328;2022-09-29T16:31:04;11.87;;;11.17;;
6197;SDS011;3132;42.622;23.328;2022-09-29T16:33:33;10.97;;;10.07;;
6197;SDS011;3132;42.622;23.328;2022-09-29T16:36:05;15.10;;;13.57;;
6197;SDS011;3132;42.622;23.328;2022-09-29T16:38:38;11.30;;;10.50;;
6197;SDS011;3132;42.622;23.328;2022-09-29T16:43:39;10.83;;;9.80;;
6197;SDS011;3132;42.622;23.328;2022-09-29T16:46:14;10.60;;;9.80;;
6197;SDS011;3132;42.622;23.328;2022-09-29T16:48:47;12.07;;;11.23;;
6197;SDS011;3132;42.622;23.328;2022-09-29T16:51:17;10.33;;;9.70;;
6197;SDS011;3132;42.622;23.328;2022-09-29T16:53:46;9.57;;;9.07;;
6197;SDS011;3132;42.622;23.328;2022-09-29T16:56:20;10.30;;;9.60;;
6197;SDS011;3132;42.622;23.328;2022-09-29T16:59:02;10.50;;;9.80;;
6197;SDS011;3132;42.622;23.328;2022-09-29T17:01:28;10.27;;;9.20;;
6197;SDS011;3132;42.622;23.328;2022-09-29T17:03:53;11.30;;;10.27;;
6197;SDS011;3132;42.622;23.328;2022-09-29T17:06:19;10.17;;;9.27;;
6197;SDS011;3132;42.622;23.328;2022-09-29T17:08:44;10.53;;;9.60;;
6197;SDS011;3132;42.622;23.328;2022-09-29T17:11:09;9.87;;;8.97;;
6197;SDS011;3132;42.622;23.328;2022-09-29T17:13:35;11.00;;;10.23;;
6197;SDS011;3132;42.622;23.328;2022-09-29T17:16:00;11.13;;;10.13;;
6197;SDS011;3132;42.622;23.328;2022-09-29T17:18:26;11.83;;;11.03;;
6197;SDS011;3132;42.622;23.328;2022-09-29T17:20:53;12.50;;;11.50;;
6197;SDS011;3132;42.622;23.328;2022-09-29T17:23:18;12.00;;;10.93;;
6197;SDS011;3132;42.622;23.328;2022-09-29T17:25:44;12.87;;;11.77;;
6197;SDS011;3132;42.622;23.328;2022-09-29T17:28:21;10.57;;;9.87;;
6197;SDS011;3132;42.622;23.328;2022-09-29T17:30:50;10.93;;;10.03;;
6197;SDS011;3132;42.622;23.328;2022-09-29T17:33:19;11.37;;;10.50;;
6197;SDS011;3132;42.622;23.328;2022-09-29T17:35:45;25.23;;;16.97;;
6197;SDS011;3132;42.622;23.328;2022-09-29T17:38:13;15.87;;;14.37;;
6197;SDS011;3132;42.622;23.328;2022-09-29T17:43:26;13.23;;;12.03;;
6197;SDS011;3132;42.622;23.328;2022-09-29T17:45:55;11.40;;;10.70;;
6197;SDS011;3132;42.622;23.328;2022-09-29T17:48:22;12.63;;;11.60;;
6197;SDS011;3132;42.622;23.328;2022-09-29T17:50:52;15.73;;;14.10;;
6197;SDS011;3132;42.622;23.328;2022-09-29T17:53:20;15.33;;;12.60;;
6197;SDS011;3132;42.622;23.328;2022-09-29T17:55:49;12.13;;;11.33;;
6197;SDS011;3132;42.622;23.328;2022-09-29T17:58:18;10.53;;;9.93;;
6197;SDS011;3132;42.622;23.328;2022-09-29T18:00:45;10.47;;;9.77;;
6197;SDS011;3132;42.622;23.328;2022-09-29T18:03:16;11.17;;;10.27;;
6197;SDS011;3132;42.622;23.328;2022-09-29T18:05:44;10.93;;;10.23;;
6197;SDS011;3132;42.622;23.328;2022-09-29T18:08:14;11.87;;;11.00;;
6197;SDS011;3132;42.622;23.328;2022-09-29T18:10:42;14.20;;;12.73;;
6197;SDS011;3132;42.622;23.328;2022-09-29T18:13:12;10.63;;;9.93;;
6197;SDS011;3132;42.622;23.328;2022-09-29T18:15:38;11.20;;;10.43;;
6197;SDS011;3132;42.622;23.328;2022-09-29T18:18:04;11.33;;;10.57;;
6197;SDS011;3132;42.622;23.328;2022-09-29T18:20:32;11.83;;;10.93;;
6197;SDS011;3132;42.622;23.328;2022-09-29T18:23:00;12.27;;;11.23;;
6197;SDS011;3132;42.622;23.328;2022-09-29T18:25:26;10.83;;;10.17;;
6197;SDS011;3132;42.622;23.328;2022-09-29T18:27:53;11.80;;;10.80;;
6197;SDS011;3132;42.622;23.328;2022-09-29T18:30:27;11.30;;;10.40;;
6197;SDS011;3132;42.622;23.328;2022-09-29T18:32:55;9.30;;;8.70;;
6197;SDS011;3132;42.622;23.328;2022-09-29T18:35:27;10.53;;;9.93;;
6197;SDS011;3132;42.622;23.328;2022-09-29T18:37:55;11.10;;;10.13;;
6197;SDS011;3132;42.622;23.328;2022-09-29T18:40:22;11.43;;;10.70;;
6197;SDS011;3132;42.622;23.328;2022-09-29T18:42:49;10.40;;;9.80;;
6197;SDS011;3132;42.622;23.328;2022-09-29T18:45:17;11.00;;;10.23;;
6197;SDS011;3132;42.622;23.328;2022-09-29T18:47:50;13.37;;;12.23;;
6197;SDS011;3132;42.622;23.328;2022-09-29T18:52:46;12.50;;;11.53;;
6197;SDS011;3132;42.622;23.328;2022-09-29T18:55:15;11.80;;;10.90;;
6197;SDS011;3132;42.622;23.328;2022-09-29T18:57:43;11.93;;;11.13;;
6197;SDS011;3132;42.622;23.328;2022-09-29T19:00:09;11.63;;;10.83;;
6197;SDS011;3132;42.622;23.328;2022-09-29T19:02:38;12.07;;;11.17;;
6197;SDS011;3132;42.622;23.328;2022-09-29T19:05:04;11.63;;;10.77;;